createdAt,value
2017-05-19T00:00:25.134Z,1004.19
2017-05-19T00:01:37.418Z,1004.23
2017-05-19T00:02:49.402Z,1004.21
2017-05-19T00:04:01.955Z,1004.18
2017-05-19T00:05:13.903Z,1004.22
2017-05-19T00:06:26.152Z,1004.2
2017-05-19T00:07:39.059Z,1004.2
2017-05-19T00:08:51.598Z,1004.22
2017-05-19T00:10:03.834Z,1004.19
2017-05-19T00:11:16.404Z,1004.22
2017-05-19T00:12:28.632Z,1004.21
2017-05-19T00:13:41.477Z,1004.18
2017-05-19T00:14:54.073Z,1004.2
2017-05-19T00:16:06.646Z,1004.17
2017-05-19T00:17:19.233Z,1004.2
2017-05-19T00:18:31.529Z,1004.16
2017-05-19T00:19:44.096Z,1004.19
2017-05-19T00:20:56.647Z,1004.19
2017-05-19T00:22:08.909Z,1004.15
2017-05-19T00:23:21.189Z,1004.15
2017-05-19T00:24:33.734Z,1004.17
2017-05-19T00:25:46.288Z,1004.09
2017-05-19T00:26:58.845Z,1004.08
2017-05-19T00:28:11.422Z,1004.08
2017-05-19T00:29:23.726Z,1004.12
2017-05-19T00:30:36.320Z,1004.1
2017-05-19T00:31:48.867Z,1004.03
2017-05-19T00:33:01.448Z,1004.04
2017-05-19T00:34:14.002Z,1004.06
2017-05-19T00:35:26.276Z,1004.04
2017-05-19T00:36:38.801Z,1004.03
2017-05-19T00:37:51.403Z,1004.01
2017-05-19T00:39:04.004Z,1003.98
2017-05-19T00:40:16.249Z,1003.98
2017-05-19T00:41:28.801Z,1003.98
2017-05-19T00:42:41.380Z,1003.92
2017-05-19T00:43:53.923Z,1003.94
2017-05-19T00:45:06.495Z,1003.95
2017-05-19T00:46:18.772Z,1003.91
2017-05-19T00:47:31.065Z,1003.93
2017-05-19T00:48:43.645Z,1003.91
2017-05-19T00:49:55.907Z,1003.89
2017-05-19T00:51:08.194Z,1003.88
2017-05-19T00:52:20.440Z,1003.84
2017-05-19T00:53:32.993Z,1003.88
2017-05-19T00:54:45.564Z,1003.83
2017-05-19T00:55:58.134Z,1003.88
2017-05-19T00:57:10.367Z,1003.82
2017-05-19T00:58:22.026Z,1003.82
2017-05-19T00:59:34.641Z,1003.8
2017-05-19T01:00:46.568Z,1003.78
2017-05-19T01:01:59.146Z,1003.82
2017-05-19T01:03:11.685Z,1003.84
2017-05-19T01:04:23.959Z,1003.86
2017-05-19T01:05:36.595Z,1003.88
2017-05-19T01:06:49.166Z,1003.92
2017-05-19T01:08:01.705Z,1003.91
2017-05-19T01:09:13.958Z,1003.95
2017-05-19T01:10:26.582Z,1004
2017-05-19T01:11:39.108Z,1004.01
2017-05-19T01:12:51.671Z,1004.03
2017-05-19T01:14:04.248Z,1004.06
2017-05-19T01:15:16.512Z,1004.02
2017-05-19T01:16:28.777Z,1004.07
2017-05-19T01:17:41.347Z,1004.07
2017-05-19T01:18:53.875Z,1004.09
2017-05-19T01:20:06.520Z,1004.13
2017-05-19T01:21:18.767Z,1004.13
2017-05-19T01:22:31.289Z,1004.17
2017-05-19T01:23:44.146Z,1004.12
2017-05-19T01:24:56.705Z,1004.19
2017-05-19T01:26:09.275Z,1004.21
2017-05-19T01:27:20.970Z,1004.21
2017-05-19T01:28:33.568Z,1004.2
2017-05-19T01:29:46.145Z,1004.22
2017-05-19T01:30:58.716Z,1004.24
2017-05-19T01:32:10.679Z,1004.27
2017-05-19T01:33:22.932Z,1004.26
2017-05-19T01:34:35.196Z,1004.24
2017-05-19T01:35:47.167Z,1004.3
2017-05-19T01:36:59.747Z,1004.27
2017-05-19T01:38:12.066Z,1004.24
2017-05-19T01:39:24.033Z,1004.28
2017-05-19T01:40:36.583Z,1004.27
2017-05-19T01:41:49.129Z,1004.29
2017-05-19T01:43:01.678Z,1004.25
2017-05-19T01:44:14.012Z,1004.23
2017-05-19T01:45:26.861Z,1004.28
2017-05-19T01:46:39.417Z,1004.26
2017-05-19T01:47:51.984Z,1004.24
2017-05-19T01:49:04.524Z,1004.23
2017-05-19T01:50:16.452Z,1004.24
2017-05-19T01:51:28.709Z,1004.25
2017-05-19T01:52:40.942Z,1004.25
2017-05-19T01:53:53.492Z,1004.22
2017-05-19T01:55:06.077Z,1004.22
2017-05-19T01:56:18.649Z,1004.16
2017-05-19T01:57:31.195Z,1004.15
2017-05-19T01:58:43.765Z,1004.16
2017-05-19T01:59:56.011Z,1004.16
2017-05-19T02:01:08.314Z,1004.16
2017-05-19T02:02:20.905Z,1004.17
2017-05-19T02:03:33.480Z,1004.19
2017-05-19T02:04:46.020Z,1004.18
2017-05-19T02:05:58.547Z,1004.17
2017-05-19T02:07:11.112Z,1004.15
2017-05-19T02:08:23.716Z,1004.13
2017-05-19T02:09:36.022Z,1004.12
2017-05-19T02:10:48.250Z,1004.12
2017-05-19T02:12:00.849Z,1004.14
2017-05-19T02:13:12.798Z,1004.11
2017-05-19T02:14:25.368Z,1004.17
2017-05-19T02:15:37.293Z,1004.13
2017-05-19T02:16:49.879Z,1004.17
2017-05-19T02:18:02.456Z,1004.14
2017-05-19T02:19:14.102Z,1004.15
2017-05-19T02:20:26.660Z,1004.1
2017-05-19T02:21:39.247Z,1004.1
2017-05-19T02:22:51.820Z,1004.08
2017-05-19T02:24:04.113Z,1004.07
2017-05-19T02:25:15.774Z,1004.03
2017-05-19T02:26:28.029Z,1004.02
2017-05-19T02:27:40.286Z,1004.03
2017-05-19T02:28:52.870Z,1004.02
2017-05-19T02:30:05.491Z,1003.96
2017-05-19T02:31:18.105Z,1003.98
2017-05-19T02:32:30.419Z,1004
2017-05-19T02:33:42.953Z,1003.99
2017-05-19T02:34:55.541Z,1004.02
2017-05-19T02:36:08.088Z,1004.03
2017-05-19T02:37:20.646Z,1004.03
2017-05-19T02:38:32.929Z,1004.02
2017-05-19T02:39:45.451Z,1004.03
2017-05-19T02:40:58.014Z,1004.02
2017-05-19T02:42:09.730Z,1004.01
2017-05-19T02:43:21.997Z,1003.99
2017-05-19T02:44:34.578Z,1003.99
2017-05-19T02:45:47.180Z,1004.02
2017-05-19T02:46:59.728Z,1004.01
2017-05-19T02:48:11.997Z,1004.03
2017-05-19T02:49:23.950Z,1004
2017-05-19T02:50:36.564Z,1003.99
2017-05-19T02:51:49.142Z,1004.02
2017-05-19T02:53:01.732Z,1004
2017-05-19T02:54:14.058Z,1003.97
2017-05-19T02:55:26.298Z,1003.94
2017-05-19T02:56:38.825Z,1003.97
2017-05-19T02:57:51.416Z,1003.96
2017-05-19T02:59:03.957Z,1003.92
2017-05-19T03:00:15.891Z,1003.96
2017-05-19T03:01:28.112Z,1003.92
2017-05-19T03:02:40.699Z,1003.87
2017-05-19T03:03:53.272Z,1003.91
2017-05-19T03:05:05.509Z,1003.9
2017-05-19T03:06:18.086Z,1003.87
2017-05-19T03:07:29.758Z,1003.87
2017-05-19T03:08:42.310Z,1003.86
2017-05-19T03:09:54.881Z,1003.88
2017-05-19T03:11:07.439Z,1003.85
2017-05-19T03:12:19.923Z,1003.9
2017-05-19T03:13:32.154Z,1003.93
2017-05-19T03:14:44.726Z,1003.93
2017-05-19T03:15:57.298Z,1003.98
2017-05-19T03:17:09.531Z,1003.94
2017-05-19T03:18:21.797Z,1003.91
2017-05-19T03:19:34.317Z,1003.92
2017-05-19T03:20:46.839Z,1003.97
2017-05-19T03:21:59.065Z,1003.89
2017-05-19T03:23:11.678Z,1003.9
2017-05-19T03:24:24.251Z,1003.85
2017-05-19T03:25:36.821Z,1003.9
2017-05-19T03:26:49.374Z,1003.88
2017-05-19T03:28:01.639Z,1003.9
2017-05-19T03:29:13.914Z,1003.91
2017-05-19T03:30:25.603Z,1003.93
2017-05-19T03:31:37.650Z,1003.91
2017-05-19T03:32:50.197Z,1003.86
2017-05-19T03:34:02.813Z,1003.87
2017-05-19T03:35:14.780Z,1003.88
2017-05-19T03:36:27.335Z,1003.83
2017-05-19T03:37:39.883Z,1003.85
2017-05-19T03:38:52.451Z,1003.82
2017-05-19T03:40:04.956Z,1003.86
2017-05-19T03:41:16.624Z,1003.82
2017-05-19T03:42:28.589Z,1003.88
2017-05-19T03:43:41.142Z,1003.92
2017-05-19T03:44:53.731Z,1003.95
2017-05-19T03:46:06.325Z,1004.03
2017-05-19T03:47:17.705Z,1004.04
2017-05-19T03:48:30.268Z,1004.04
2017-05-19T03:49:42.839Z,1004.08
2017-05-19T03:50:55.369Z,1004.01
2017-05-19T03:52:07.931Z,1004.03
2017-05-19T03:53:20.504Z,1004.04
2017-05-19T03:54:32.473Z,1004.04
2017-05-19T03:55:45.345Z,1004.02
2017-05-19T03:56:57.940Z,1003.98
2017-05-19T03:58:10.214Z,1004.01
2017-05-19T03:59:22.164Z,1004.03
2017-05-19T04:00:34.728Z,1004.05
2017-05-19T04:01:47.225Z,1004.05
2017-05-19T04:02:59.813Z,1004.04
2017-05-19T04:04:12.358Z,1004.05
2017-05-19T04:05:24.286Z,1004.04
2017-05-19T04:06:36.808Z,1004.06
2017-05-19T04:07:49.403Z,1004.08
2017-05-19T04:09:01.981Z,1004.07
2017-05-19T04:10:14.251Z,1004.09
2017-05-19T04:11:25.934Z,1004.05
2017-05-19T04:12:38.460Z,1004.06
2017-05-19T04:13:51.014Z,1004.04
2017-05-19T04:15:03.554Z,1004.04
2017-05-19T04:16:15.793Z,1004.02
2017-05-19T04:17:28.337Z,1004.02
2017-05-19T04:18:40.898Z,1003.99
2017-05-19T04:19:53.463Z,1004.05
2017-05-19T04:21:05.715Z,1004.05
2017-05-19T04:22:17.985Z,1004.11
2017-05-19T04:23:30.230Z,1004.13
2017-05-19T04:24:42.496Z,1004.14
2017-05-19T04:25:54.748Z,1004.17
2017-05-19T04:27:06.988Z,1004.2
2017-05-19T04:28:19.200Z,1004.18
2017-05-19T04:29:31.461Z,1004.18
2017-05-19T04:30:44.035Z,1004.22
2017-05-19T04:31:56.590Z,1004.25
2017-05-19T04:33:09.171Z,1004.25
2017-05-19T04:34:21.163Z,1004.21
2017-05-19T04:35:32.766Z,1004.26
2017-05-19T04:36:45.348Z,1004.23
2017-05-19T04:37:57.900Z,1004.22
2017-05-19T04:39:10.177Z,1004.21
2017-05-19T04:40:22.442Z,1004.22
2017-05-19T04:41:34.688Z,1004.2
2017-05-19T04:42:47.277Z,1004.26
2017-05-19T04:43:59.831Z,1004.23
2017-05-19T04:45:12.059Z,1004.27
2017-05-19T04:46:23.724Z,1004.25
2017-05-19T04:47:36.336Z,1004.24
2017-05-19T04:48:48.932Z,1004.25
2017-05-19T04:50:01.460Z,1004.24
2017-05-19T04:51:13.130Z,1004.28
2017-05-19T04:52:25.433Z,1004.25
2017-05-19T04:53:37.998Z,1004.28
2017-05-19T04:54:50.625Z,1004.29
2017-05-19T04:56:02.871Z,1004.28
2017-05-19T04:57:14.846Z,1004.3
2017-05-19T04:58:27.088Z,1004.29
2017-05-19T04:59:39.371Z,1004.27
2017-05-19T05:00:51.924Z,1004.25
2017-05-19T05:02:04.452Z,1004.3
2017-05-19T05:03:16.390Z,1004.3
2017-05-19T05:04:28.968Z,1004.29
2017-05-19T05:05:41.582Z,1004.29
2017-05-19T05:06:54.428Z,1004.21
2017-05-19T05:08:06.974Z,1004.19
2017-05-19T05:09:19.220Z,1004.24
2017-05-19T05:10:31.791Z,1004.21
2017-05-19T05:11:44.387Z,1004.27
2017-05-19T05:12:56.934Z,1004.23
2017-05-19T05:14:09.510Z,1004.15
2017-05-19T05:15:22.155Z,1004.18
2017-05-19T05:16:34.751Z,1004.13
2017-05-19T05:17:47.309Z,1004.16
2017-05-19T05:18:59.862Z,1004.16
2017-05-19T05:20:11.792Z,1004.15
2017-05-19T05:21:24.133Z,1004.11
2017-05-19T05:22:36.693Z,1004.1
2017-05-19T05:23:48.971Z,1004.07
2017-05-19T05:25:01.565Z,1004.09
2017-05-19T05:26:14.144Z,1004.21
2017-05-19T05:27:26.697Z,1004.21
2017-05-19T05:28:39.336Z,1004.2
2017-05-19T05:29:51.643Z,1004.17
2017-05-19T05:31:03.595Z,1004.18
2017-05-19T05:32:15.560Z,1004.15
2017-05-19T05:33:28.066Z,1004.09
2017-05-19T05:34:40.591Z,1004.07
2017-05-19T05:35:53.136Z,1004.07
2017-05-19T05:37:05.702Z,1004.1
2017-05-19T05:38:17.354Z,1004.1
2017-05-19T05:39:28.993Z,1004.14
2017-05-19T05:40:41.563Z,1004.13
2017-05-19T05:41:53.818Z,1004.1
2017-05-19T05:43:05.757Z,1004.12
2017-05-19T05:44:17.378Z,1004.14
2017-05-19T05:45:29.930Z,1004.19
2017-05-19T05:46:42.493Z,1004.25
2017-05-19T05:47:55.071Z,1004.26
2017-05-19T05:49:07.043Z,1004.24
2017-05-19T05:50:19.349Z,1004.2
2017-05-19T05:51:31.933Z,1004.21
2017-05-19T05:52:44.522Z,1004.21
2017-05-19T05:53:56.794Z,1004.19
2017-05-19T05:55:09.057Z,1004.17
2017-05-19T05:56:21.336Z,1004.21
2017-05-19T05:57:33.906Z,1004.22
2017-05-19T05:58:46.185Z,1004.19
2017-05-19T05:59:58.756Z,1004.24
2017-05-19T06:01:11.275Z,1004.2
2017-05-19T06:02:23.022Z,1004.2
2017-05-19T06:03:34.992Z,1004.2
2017-05-19T06:04:47.588Z,1004.15
2017-05-19T06:06:00.226Z,1004.15
2017-05-19T06:07:11.856Z,1004.12
2017-05-19T06:08:23.501Z,1004.13
2017-05-19T06:09:36.066Z,1004.11
2017-05-19T06:10:48.637Z,1004.1
2017-05-19T06:12:01.158Z,1004.1
2017-05-19T06:13:13.409Z,1004.13
2017-05-19T06:14:25.682Z,1004.14
2017-05-19T06:15:38.288Z,1004.2
2017-05-19T06:16:50.542Z,1004.2
2017-05-19T06:18:02.787Z,1004.22
2017-05-19T06:19:15.040Z,1004.29
2017-05-19T06:20:27.004Z,1004.28
2017-05-19T06:21:39.532Z,1004.2
2017-05-19T06:22:52.139Z,1004.26
2017-05-19T06:24:04.409Z,1004.32
2017-05-19T06:25:16.055Z,1004.41
2017-05-19T06:26:28.616Z,1004.39
2017-05-19T06:27:41.161Z,1004.43
2017-05-19T06:28:53.756Z,1004.6
2017-05-19T06:30:06.323Z,1004.73
2017-05-19T06:31:17.650Z,1004.69
2017-05-19T06:32:30.214Z,1004.6
2017-05-19T06:33:42.565Z,1004.61
2017-05-19T06:34:54.812Z,1004.63
2017-05-19T06:36:06.763Z,1004.65
2017-05-19T06:37:18.722Z,1004.55
2017-05-19T06:38:30.693Z,1004.59
2017-05-19T06:39:43.239Z,1004.55
2017-05-19T06:40:55.833Z,1004.59
2017-05-19T06:42:08.417Z,1004.64
2017-05-19T06:43:20.959Z,1004.69
2017-05-19T06:44:33.293Z,1004.68
2017-05-19T06:45:45.860Z,1004.67
2017-05-19T06:46:58.096Z,1004.72
2017-05-19T06:48:09.779Z,1004.72
2017-05-19T06:49:22.030Z,1004.69
2017-05-19T06:50:34.320Z,1004.66
2017-05-19T06:51:46.873Z,1004.67
2017-05-19T06:52:59.447Z,1004.63
2017-05-19T06:54:12.019Z,1004.68
2017-05-19T06:55:23.978Z,1004.59
2017-05-19T06:56:36.240Z,1004.53
2017-05-19T06:57:48.826Z,1004.43
2017-05-19T06:59:01.410Z,1004.28
2017-05-19T07:00:13.962Z,1004.17
2017-05-19T07:01:26.517Z,1004.19
2017-05-19T07:02:38.853Z,1004.13
2017-05-19T07:03:51.433Z,1004.16
2017-05-19T07:05:03.695Z,1004.15
2017-05-19T07:06:15.622Z,1004.12
2017-05-19T07:07:28.180Z,1004.1
2017-05-19T07:08:40.516Z,1004.11
2017-05-19T07:09:53.061Z,1004.04
2017-05-19T07:11:05.371Z,1003.99
2017-05-19T07:12:17.045Z,1003.98
2017-05-19T07:13:29.005Z,1004
2017-05-19T07:14:41.581Z,1004
2017-05-19T07:15:54.133Z,1003.98
2017-05-19T07:17:06.686Z,1004
2017-05-19T07:18:18.959Z,1003.97
2017-05-19T07:19:30.334Z,1003.98
2017-05-19T07:20:42.332Z,1003.99
2017-05-19T07:21:54.888Z,1003.98
2017-05-19T07:23:06.859Z,1003.94
2017-05-19T07:24:18.555Z,1003.94
2017-05-19T07:25:30.800Z,1003.97
2017-05-19T07:26:42.730Z,1003.93
2017-05-19T07:27:54.686Z,1003.98
2017-05-19T07:29:07.352Z,1003.98
2017-05-19T07:30:19.366Z,1003.97
2017-05-19T07:31:31.645Z,1003.92
2017-05-19T07:32:44.226Z,1003.91
2017-05-19T07:33:56.257Z,1003.9
2017-05-19T07:35:08.868Z,1003.89
2017-05-19T07:36:21.453Z,1003.89
2017-05-19T07:37:33.466Z,1003.88
2017-05-19T07:38:46.051Z,1003.86
2017-05-19T07:39:58.617Z,1003.82
2017-05-19T07:41:11.213Z,1003.86
2017-05-19T07:42:23.501Z,1003.78
2017-05-19T07:43:36.399Z,1003.79
2017-05-19T07:44:49.017Z,1003.78
2017-05-19T07:46:01.032Z,1003.75
2017-05-19T07:47:12.979Z,1003.78
2017-05-19T07:48:24.913Z,1003.76
2017-05-19T07:49:36.951Z,1003.74
2017-05-19T07:50:49.566Z,1003.72
2017-05-19T07:52:02.177Z,1003.74
2017-05-19T07:53:14.482Z,1003.72
2017-05-19T07:54:26.467Z,1003.67
2017-05-19T07:55:38.749Z,1003.75
2017-05-19T07:56:50.734Z,1003.69
2017-05-19T07:58:03.316Z,1003.73
2017-05-19T07:59:15.613Z,1003.71
2017-05-19T08:00:28.193Z,1003.69
2017-05-19T08:01:40.505Z,1003.67
2017-05-19T08:02:52.825Z,1003.68
2017-05-19T08:04:05.452Z,1003.69
2017-05-19T08:05:17.441Z,1003.63
2017-05-19T08:06:30.006Z,1003.65
2017-05-19T08:07:42.052Z,1003.62
2017-05-19T08:08:54.644Z,1003.61
2017-05-19T08:10:06.926Z,1003.61
2017-05-19T08:11:18.602Z,1003.58
2017-05-19T08:12:31.175Z,1003.61
2017-05-19T08:13:43.156Z,1003.58
2017-05-19T08:14:55.740Z,1003.57
2017-05-19T08:16:08.019Z,1003.55
2017-05-19T08:17:20.307Z,1003.57
2017-05-19T08:18:32.646Z,1003.52
2017-05-19T08:19:44.606Z,1003.52
2017-05-19T08:20:56.953Z,1003.51
2017-05-19T08:22:09.583Z,1003.49
2017-05-19T08:23:21.925Z,1003.52
2017-05-19T08:24:34.515Z,1003.51
2017-05-19T08:25:46.786Z,1003.5
2017-05-19T08:26:59.351Z,1003.48
2017-05-19T08:28:11.920Z,1003.48
2017-05-19T08:29:24.209Z,1003.46
2017-05-19T08:30:36.194Z,1003.44
2017-05-19T08:31:48.490Z,1003.46
2017-05-19T08:33:00.797Z,1003.51
2017-05-19T08:34:13.356Z,1003.5
2017-05-19T08:35:25.682Z,1003.49
2017-05-19T08:36:37.642Z,1003.49
2017-05-19T08:37:50.497Z,1003.51
2017-05-19T08:39:02.494Z,1003.48
2017-05-19T08:40:14.480Z,1003.51
2017-05-19T08:41:26.458Z,1003.48
2017-05-19T08:42:38.166Z,1003.58
2017-05-19T08:43:50.761Z,1003.49
2017-05-19T08:45:03.366Z,1003.47
2017-05-19T08:46:15.341Z,1003.47
2017-05-19T08:47:27.613Z,1003.47
2017-05-19T08:48:39.928Z,1003.44
2017-05-19T08:49:52.522Z,1003.46
2017-05-19T08:51:04.844Z,1003.48
2017-05-19T08:52:16.862Z,1003.47
2017-05-19T08:53:28.566Z,1003.45
2017-05-19T08:54:41.155Z,1003.45
2017-05-19T08:55:53.752Z,1003.43
2017-05-19T08:57:06.361Z,1003.45
2017-05-19T08:58:18.344Z,1003.39
2017-05-19T08:59:30.573Z,1003.39
2017-05-19T09:00:42.579Z,1003.42
2017-05-19T09:01:54.856Z,1003.37
2017-05-19T09:03:07.445Z,1003.4
2017-05-19T09:04:19.111Z,1003.43
2017-05-19T09:05:31.702Z,1003.4
2017-05-19T09:06:43.994Z,1003.45
2017-05-19T09:07:56.554Z,1003.38
2017-05-19T09:09:09.156Z,1003.36
2017-05-19T09:10:21.422Z,1003.42
2017-05-19T09:11:34.030Z,1003.39
2017-05-19T09:12:46.013Z,1003.36
2017-05-19T09:13:58.547Z,1003.36
2017-05-19T09:15:10.531Z,1003.39
2017-05-19T09:16:23.176Z,1003.37
2017-05-19T09:17:35.161Z,1003.38
2017-05-19T09:18:47.774Z,1003.32
2017-05-19T09:20:00.352Z,1003.38
2017-05-19T09:21:12.342Z,1003.4
2017-05-19T09:22:24.963Z,1003.4
2017-05-19T09:23:37.559Z,1003.4
2017-05-19T09:24:50.162Z,1003.35
2017-05-19T09:26:02.456Z,1003.33
2017-05-19T09:27:14.729Z,1003.32
2017-05-19T09:28:27.285Z,1003.32
2017-05-19T09:29:39.544Z,1003.29
2017-05-19T09:30:51.815Z,1003.41
2017-05-19T09:32:04.357Z,1003.37
2017-05-19T09:33:16.656Z,1003.38
2017-05-19T09:34:29.220Z,1003.36
2017-05-19T09:35:41.168Z,1003.34
2017-05-19T09:36:53.138Z,1003.32
2017-05-19T09:38:05.427Z,1003.32
2017-05-19T09:39:16.798Z,1003.36
2017-05-19T09:40:29.418Z,1003.34
2017-05-19T09:41:41.690Z,1003.36
2017-05-19T09:42:54.230Z,1003.27
2017-05-19T09:44:06.822Z,1003.29
2017-05-19T09:45:19.085Z,1003.21
2017-05-19T09:46:31.667Z,1003.18
2017-05-19T09:47:44.246Z,1003.2
2017-05-19T09:48:56.839Z,1003.24
2017-05-19T09:50:09.469Z,1003.18
2017-05-19T09:51:21.457Z,1003.14
2017-05-19T09:52:33.422Z,1003.2
2017-05-19T09:53:46.054Z,1003.21
2017-05-19T09:54:58.670Z,1003.21
2017-05-19T09:56:10.329Z,1003.23
2017-05-19T09:57:22.869Z,1003.21
2017-05-19T09:58:34.846Z,1003.12
2017-05-19T09:59:47.463Z,1003.15
2017-05-19T10:00:59.750Z,1003.06
2017-05-19T10:02:12.030Z,1003.13
2017-05-19T10:03:24.649Z,1003.12
2017-05-19T10:04:36.920Z,1003.1
2017-05-19T10:05:49.216Z,1003.09
2017-05-19T10:07:01.768Z,1003.07
2017-05-19T10:08:14.067Z,1003.04
2017-05-19T10:09:26.353Z,1002.98
2017-05-19T10:10:38.631Z,1002.96
2017-05-19T10:11:50.920Z,1002.9
2017-05-19T10:13:03.499Z,1002.91
2017-05-19T10:14:15.829Z,1002.88
2017-05-19T10:15:28.089Z,1002.96
2017-05-19T10:16:40.677Z,1002.93
2017-05-19T10:17:53.273Z,1002.93
2017-05-19T10:19:05.564Z,1002.91
2017-05-19T10:20:17.550Z,1002.89
2017-05-19T10:21:30.154Z,1002.84
2017-05-19T10:22:42.451Z,1002.87
2017-05-19T10:23:55.036Z,1002.83
2017-05-19T10:25:07.647Z,1002.93
2017-05-19T10:26:19.370Z,1002.88
2017-05-19T10:27:31.983Z,1002.86
2017-05-19T10:28:44.265Z,1002.89
2017-05-19T10:29:56.513Z,1002.89
2017-05-19T10:31:08.478Z,1002.85
2017-05-19T10:32:19.875Z,1002.87
2017-05-19T10:33:31.902Z,1002.89
2017-05-19T10:34:44.168Z,1002.86
2017-05-19T10:35:56.739Z,1002.83
2017-05-19T10:37:09.041Z,1002.81
2017-05-19T10:38:21.623Z,1002.84
2017-05-19T10:39:33.632Z,1002.81
2017-05-19T10:40:45.966Z,1002.81
2017-05-19T10:41:58.518Z,1002.82
2017-05-19T10:43:10.190Z,1002.77
2017-05-19T10:44:22.511Z,1002.82
2017-05-19T10:45:34.559Z,1002.71
2017-05-19T10:46:47.102Z,1002.76
2017-05-19T10:47:59.374Z,1002.8
2017-05-19T10:49:11.618Z,1002.79
2017-05-19T10:50:24.246Z,1002.77
2017-05-19T10:51:36.554Z,1002.73
2017-05-19T10:52:49.156Z,1002.72
2017-05-19T10:54:01.784Z,1002.73
2017-05-19T10:55:13.489Z,1002.73
2017-05-19T10:56:25.746Z,1002.7
2017-05-19T10:57:38.342Z,1002.75
2017-05-19T10:58:50.609Z,1002.72
2017-05-19T11:00:03.182Z,1002.73
2017-05-19T11:01:15.801Z,1002.69
2017-05-19T11:02:28.441Z,1002.72
2017-05-19T11:03:40.795Z,1002.68
2017-05-19T11:04:53.436Z,1002.67
2017-05-19T11:06:05.745Z,1002.58
2017-05-19T11:07:18.307Z,1002.64
2017-05-19T11:08:30.605Z,1002.62
2017-05-19T11:09:43.256Z,1002.64
2017-05-19T11:10:55.863Z,1002.63
2017-05-19T11:12:08.488Z,1002.56
2017-05-19T11:13:20.791Z,1002.6
2017-05-19T11:14:33.107Z,1002.58
2017-05-19T11:15:45.403Z,1002.58
2017-05-19T11:16:57.733Z,1002.55
2017-05-19T11:18:10.370Z,1002.56
2017-05-19T11:19:22.742Z,1002.55
2017-05-19T11:20:35.318Z,1002.5
2017-05-19T11:21:47.640Z,1002.5
2017-05-19T11:22:59.965Z,1002.45
2017-05-19T11:24:12.577Z,1002.5
2017-05-19T11:25:24.846Z,1002.46
2017-05-19T11:26:37.447Z,1002.48
2017-05-19T11:27:49.134Z,1002.49
2017-05-19T11:29:01.459Z,1002.46
2017-05-19T11:30:13.486Z,1002.44
2017-05-19T11:31:25.809Z,1002.42
2017-05-19T11:32:38.429Z,1002.49
2017-05-19T11:33:50.975Z,1002.47
2017-05-19T11:35:03.619Z,1002.49
2017-05-19T11:36:15.640Z,1002.48
2017-05-19T11:37:28.237Z,1002.46
2017-05-19T11:38:40.831Z,1002.49
2017-05-19T11:39:53.103Z,1002.42
2017-05-19T11:41:05.366Z,1002.47
2017-05-19T11:42:17.695Z,1002.45
2017-05-19T11:43:30.335Z,1002.45
2017-05-19T11:44:42.936Z,1002.43
2017-05-19T11:45:54.943Z,1002.41
2017-05-19T11:47:07.528Z,1002.39
2017-05-19T11:48:19.524Z,1002.36
2017-05-19T11:49:31.528Z,1002.37
2017-05-19T11:50:43.562Z,1002.37
2017-05-19T11:51:55.579Z,1002.37
2017-05-19T11:53:07.553Z,1002.39
2017-05-19T11:54:19.546Z,1002.38
2017-05-19T11:55:32.150Z,1002.36
2017-05-19T11:56:44.121Z,1002.38
2017-05-19T11:57:56.134Z,1002.32
2017-05-19T11:59:07.830Z,1002.37
2017-05-19T12:00:20.406Z,1002.34
2017-05-19T12:01:32.698Z,1002.31
2017-05-19T12:02:44.952Z,1002.3
2017-05-19T12:03:57.233Z,1002.32
2017-05-19T12:05:09.511Z,1002.31
2017-05-19T12:06:21.812Z,1002.32
2017-05-19T12:07:34.159Z,1002.26
2017-05-19T12:08:46.430Z,1002.23
2017-05-19T12:09:58.793Z,1002.21
2017-05-19T12:11:11.091Z,1002.23
2017-05-19T12:12:23.669Z,1002.19
2017-05-19T12:13:36.050Z,1002.18
2017-05-19T12:14:48.352Z,1002.19
2017-05-19T12:16:00.657Z,1002.18
2017-05-19T12:17:12.953Z,1002.23
2017-05-19T12:18:25.541Z,1002.24
2017-05-19T12:19:37.837Z,1002.23
2017-05-19T12:20:50.140Z,1002.24
2017-05-19T12:22:02.410Z,1002.23
2017-05-19T12:23:15.007Z,1002.27
2017-05-19T12:24:26.726Z,1002.19
2017-05-19T12:25:39.048Z,1002.22
2017-05-19T12:26:51.613Z,1002.14
2017-05-19T12:28:04.201Z,1002.18
2017-05-19T12:29:16.185Z,1002.16
2017-05-19T12:30:28.481Z,1002.19
2017-05-19T12:31:41.113Z,1002.23
2017-05-19T12:32:52.799Z,1002.22
2017-05-19T12:34:05.446Z,1002.15
2017-05-19T12:35:17.142Z,1002.15
2017-05-19T12:36:29.773Z,1002.14
2017-05-19T12:37:42.326Z,1002.15
2017-05-19T12:38:54.328Z,1002.18
2017-05-19T12:40:06.593Z,1002.15
2017-05-19T12:41:18.881Z,1002.17
2017-05-19T12:42:31.219Z,1002.15
2017-05-19T12:43:43.530Z,1002.14
2017-05-19T12:44:55.502Z,1002.16
2017-05-19T12:46:07.821Z,1002.16
2017-05-19T12:47:20.475Z,1002.16
2017-05-19T12:48:33.096Z,1002.12
2017-05-19T12:49:45.386Z,1002.11
2017-05-19T12:50:57.055Z,1002.06
2017-05-19T12:52:09.070Z,1002.12
2017-05-19T12:53:21.645Z,1002.12
2017-05-19T12:54:33.650Z,1002.08
2017-05-19T12:55:45.965Z,1002.1
2017-05-19T12:56:58.228Z,1002.09
2017-05-19T12:58:10.481Z,1002.06
2017-05-19T12:59:22.120Z,1002.07
2017-05-19T13:00:34.473Z,1002.04
2017-05-19T13:01:46.183Z,1002.05
2017-05-19T13:02:58.822Z,1002.02
2017-05-19T13:04:10.811Z,1002.03
2017-05-19T13:05:23.107Z,1002
2017-05-19T13:06:35.109Z,1002
2017-05-19T13:07:47.672Z,1002
2017-05-19T13:08:59.987Z,1001.98
2017-05-19T13:10:11.942Z,1001.98
2017-05-19T13:11:24.212Z,1001.96
2017-05-19T13:12:36.832Z,1001.95
2017-05-19T13:13:49.143Z,1001.99
2017-05-19T13:15:01.732Z,1001.98
2017-05-19T13:16:13.720Z,1001.99
2017-05-19T13:17:26.340Z,1001.97
2017-05-19T13:18:38.913Z,1001.92
2017-05-19T13:19:51.109Z,1001.96
2017-05-19T13:21:03.410Z,1001.9
2017-05-19T13:22:16.026Z,1001.89
2017-05-19T13:23:28.647Z,1001.88
2017-05-19T13:24:41.265Z,1001.87
2017-05-19T13:25:53.238Z,1001.84
2017-05-19T13:27:05.502Z,1001.84
2017-05-19T13:28:17.780Z,1001.85
2017-05-19T13:29:30.057Z,1001.87
2017-05-19T13:30:42.057Z,1001.86
2017-05-19T13:31:54.043Z,1001.87
2017-05-19T13:33:06.317Z,1001.82
2017-05-19T13:34:18.602Z,1001.76
2017-05-19T13:35:30.883Z,1001.76
2017-05-19T13:36:43.482Z,1001.76
2017-05-19T13:37:55.747Z,1001.73
2017-05-19T13:39:08.054Z,1001.76
2017-05-19T13:40:20.357Z,1001.76
2017-05-19T13:41:32.653Z,1001.68
2017-05-19T13:42:45.238Z,1001.71
2017-05-19T13:43:57.203Z,1001.7
2017-05-19T13:45:09.754Z,1001.69
2017-05-19T13:46:22.016Z,1001.7
2017-05-19T13:47:34.638Z,1001.66
2017-05-19T13:48:46.634Z,1001.74
2017-05-19T13:49:59.249Z,1001.65
2017-05-19T13:51:11.851Z,1001.68
2017-05-19T13:52:24.171Z,1001.68
2017-05-19T13:53:36.550Z,1001.7
2017-05-19T13:54:48.847Z,1001.7
2017-05-19T13:56:01.117Z,1001.69
2017-05-19T13:57:13.382Z,1001.67
2017-05-19T13:58:25.695Z,1001.7
2017-05-19T13:59:38.323Z,1001.67
2017-05-19T14:00:50.620Z,1001.68
2017-05-19T14:02:03.213Z,1001.66
2017-05-19T14:03:15.812Z,1001.63
2017-05-19T14:04:28.374Z,1001.67
2017-05-19T14:05:40.904Z,1001.66
2017-05-19T14:06:53.215Z,1001.69
2017-05-19T14:08:05.250Z,1001.68
2017-05-19T14:09:17.497Z,1001.65
2017-05-19T14:10:30.068Z,1001.68
2017-05-19T14:11:42.664Z,1001.65
2017-05-19T14:12:54.934Z,1001.61
2017-05-19T14:14:07.505Z,1001.61
2017-05-19T14:15:19.511Z,1001.66
2017-05-19T14:16:31.797Z,1001.6
2017-05-19T14:17:43.786Z,1001.58
2017-05-19T14:18:56.334Z,1001.54
2017-05-19T14:20:08.922Z,1001.6
2017-05-19T14:21:21.217Z,1001.6
2017-05-19T14:22:33.778Z,1001.59
2017-05-19T14:23:46.091Z,1001.61
2017-05-19T14:24:58.696Z,1001.57
2017-05-19T14:26:11.301Z,1001.53
2017-05-19T14:27:23.580Z,1001.51
2017-05-19T14:28:36.201Z,1001.5
2017-05-19T14:29:48.727Z,1001.49
2017-05-19T14:31:00.724Z,1001.52
2017-05-19T14:32:12.730Z,1001.53
2017-05-19T14:33:25.284Z,1001.49
2017-05-19T14:34:37.837Z,1001.51
2017-05-19T14:35:49.892Z,1001.37
2017-05-19T14:37:01.879Z,1001.39
2017-05-19T14:38:14.465Z,1001.35